Pagrindinis puslapis
METAR-TAF:

METAR-TAF

Oro uostai :

Svolvær, Norvegija

platuma: 68-15N, ilguma: 014-40E, Aukštis: 0 m

Dabartinis oras

Ataskaita buvo paskelbta 27 minutes, ne 08:50 UTC
Vėjas 19 kt iš Šiaurės
Temperatūra 2°C
Drėgmė 75%
Slėgis 974 hPa
Matomumas 10 km arba daugiau
Išsisklaidę debesys ne aukštis 2500 ft
Su prošvaistėmis ne aukštis 4500 ft
Liūtis kaimynystėje

METAR: ENSH 180850Z 35019KT 9999 VCSH SCT025 BKN045 02/M02 Q0974 RMK WIND 150FT 35023KT

Laikas: 10:17 (09:17 UTC)

Prognozė

Ataskaita buvo paskelbta 4 valandos ir 17 minutes, ne 05:00 UTC
Prognozė galioja nuo 18 metu 06 UTC su 18 metu 11 UTC
Vėjas 18 kt iš Šiaurės
Matomumas 10 km arba daugiau
Mažai debesys ne aukštis 1000 ft
Su prošvaistėmis ne aukštis 2500 ft
Laikinai
nuo 18 metu 06 UTC su 18 metu 09 UTC
Matomumas: 3000 m
ne aukštis 900 ft
lietus, sniegas

TAF: ENSH 180500Z 1806/1811 01018KT 9999 FEW010 BKN025 TEMPO 1806/1809 3000 SHRASN VV009

Orai ataskaitas ir orų prognozės (METAR, TAF).

turimą stotys yra geltonos ir raudonos taškus žemėlapyje.

Perkelti pele per norėdami pamatyti stoties vardą.

Tada spustelėkite, norėdami matyti oro stebėjimo ir prognozės.

Norėdami pakeisti žemėlapį: spustelėkite ant žalios mygtukų su juodo kryžiaus žemyn,; žalią mygtuką su brūkšneliu, jei norite nutolinti; arba žalių rodyklių gretimoms žemėlapius.


METAR-TAF: